createdAt,value
2022-09-11T00:00:44.520Z,1.60
2022-09-11T00:03:11.629Z,1.70
2022-09-11T00:05:40.453Z,1.70
2022-09-11T00:08:08.617Z,1.70
2022-09-11T00:10:40.105Z,1.90
2022-09-11T00:13:08.377Z,2.22
2022-09-11T00:15:37.889Z,1.70
2022-09-11T00:18:05.609Z,1.83
2022-09-11T00:20:33.771Z,1.90
2022-09-11T00:23:05.025Z,1.88
2022-09-11T00:25:35.517Z,1.90
2022-09-11T00:28:03.282Z,1.80
2022-09-11T00:30:30.890Z,1.77
2022-09-11T00:32:57.968Z,1.70
2022-09-11T00:35:25.221Z,1.77
2022-09-11T00:37:52.385Z,1.83
2022-09-11T00:40:19.744Z,1.60
2022-09-11T00:42:51.832Z,1.67
2022-09-11T00:45:29.061Z,1.58
2022-09-11T00:47:58.813Z,1.80
2022-09-11T00:50:27.744Z,1.47
2022-09-11T00:52:56.352Z,1.65
2022-09-11T00:55:27.237Z,1.40
2022-09-11T00:57:57.272Z,1.40
2022-09-11T01:00:24.377Z,1.53
2022-09-11T01:02:53.438Z,1.50
2022-09-11T01:05:22.414Z,1.60
2022-09-11T01:07:54.124Z,1.57
2022-09-11T01:10:27.060Z,1.58
2022-09-11T01:13:01.520Z,1.40
2022-09-11T01:15:37.029Z,1.43
2022-09-11T01:18:24.095Z,1.60
2022-09-11T01:21:11.075Z,1.50
2022-09-11T01:23:38.166Z,1.90
2022-09-11T01:26:26.100Z,1.58
2022-09-11T01:28:57.700Z,1.65
2022-09-11T01:31:25.988Z,1.60
2022-09-11T01:34:00.739Z,1.40
2022-09-11T01:36:29.477Z,1.40
2022-09-11T01:38:58.719Z,1.90
2022-09-11T01:41:27.758Z,1.50
2022-09-11T01:43:56.831Z,1.55
2022-09-11T01:46:25.215Z,1.40
2022-09-11T01:49:00.243Z,1.40
2022-09-11T01:51:29.047Z,1.30
2022-09-11T01:53:56.859Z,1.40
2022-09-11T01:56:27.630Z,1.10
2022-09-11T01:59:01.339Z,1.13
2022-09-11T02:01:30.699Z,1.10
2022-09-11T02:04:01.647Z,1.10
2022-09-11T02:06:31.811Z,1.50
2022-09-11T02:09:00.846Z,1.38
2022-09-11T02:11:29.947Z,1.55
2022-09-11T02:14:04.372Z,1.70
2022-09-11T02:16:39.811Z,1.30
2022-09-11T02:19:09.735Z,1.80
2022-09-11T02:21:37.326Z,1.50
2022-09-11T02:24:04.496Z,2.17
2022-09-11T02:26:32.866Z,2.10
2022-09-11T02:29:00.110Z,1.85
2022-09-11T02:31:27.937Z,1.73
2022-09-11T02:33:55.086Z,1.80
2022-09-11T02:36:35.687Z,1.70
2022-09-11T02:39:09.500Z,1.60
2022-09-11T02:41:46.514Z,1.50
2022-09-11T02:44:14.624Z,1.42
2022-09-11T02:47:02.187Z,1.50
2022-09-11T02:49:29.262Z,1.50
2022-09-11T02:52:03.533Z,1.40
2022-09-11T02:54:46.047Z,1.52
2022-09-11T02:57:13.150Z,1.00
2022-09-11T03:00:01.093Z,1.43
2022-09-11T03:02:29.530Z,0.98
2022-09-11T03:04:56.788Z,1.35
2022-09-11T03:07:27.254Z,1.10
2022-09-11T03:09:54.318Z,1.35
2022-09-11T03:12:21.530Z,1.15
2022-09-11T03:14:49.452Z,1.20
2022-09-11T03:17:17.087Z,1.20
2022-09-11T03:19:44.191Z,1.20
2022-09-11T03:22:11.329Z,1.60
2022-09-11T03:24:39.658Z,1.42
2022-09-11T03:27:06.890Z,2.20
2022-09-11T03:29:33.969Z,1.50
2022-09-11T03:32:00.968Z,2.15
2022-09-11T03:34:28.148Z,2.10
2022-09-11T03:36:55.230Z,3.25
2022-09-11T03:39:22.329Z,3.03
2022-09-11T03:41:49.409Z,3.17
2022-09-11T03:44:17.637Z,3.58
2022-09-11T03:46:44.727Z,3.65
2022-09-11T03:49:12.026Z,3.30
2022-09-11T03:51:39.077Z,3.70
2022-09-11T03:54:06.152Z,3.80
2022-09-11T03:56:33.217Z,3.17
2022-09-11T03:59:00.334Z,3.70
2022-09-11T04:01:27.645Z,3.55
2022-09-11T04:03:54.698Z,2.65
2022-09-11T04:06:21.789Z,3.20
2022-09-11T04:08:49.284Z,2.80
2022-09-11T04:11:16.506Z,3.35
2022-09-11T04:13:43.877Z,3.30
2022-09-11T04:16:12.726Z,2.58
2022-09-11T04:18:40.269Z,2.97
2022-09-11T04:21:08.325Z,3.15
2022-09-11T04:23:35.529Z,3.10
2022-09-11T04:26:03.009Z,3.63
2022-09-11T04:28:30.935Z,3.13
2022-09-11T04:31:03.217Z,3.50
2022-09-11T04:33:30.465Z,3.20
2022-09-11T04:35:57.512Z,2.95
2022-09-11T04:38:24.697Z,3.47
2022-09-11T04:40:53.156Z,3.17
2022-09-11T04:43:20.220Z,2.78
2022-09-11T04:45:47.312Z,2.92
2022-09-11T04:48:14.443Z,3.05
2022-09-11T04:50:41.576Z,3.00
2022-09-11T04:53:08.673Z,2.50
2022-09-11T04:55:35.761Z,3.10
2022-09-11T04:58:03.616Z,2.90
2022-09-11T05:00:30.915Z,2.63
2022-09-11T05:02:57.964Z,2.45
2022-09-11T05:05:25.384Z,2.40
2022-09-11T05:07:53.444Z,2.15
2022-09-11T05:10:20.591Z,2.40
2022-09-11T05:12:47.712Z,2.50
2022-09-11T05:15:14.847Z,2.47
2022-09-11T05:17:41.915Z,2.70
2022-09-11T05:20:11.923Z,2.28
2022-09-11T05:22:39.134Z,2.07
2022-09-11T05:25:06.290Z,2.05
2022-09-11T05:27:33.275Z,2.47
2022-09-11T05:30:01.542Z,2.53
2022-09-11T05:32:28.679Z,2.53
2022-09-11T05:34:55.751Z,2.65
2022-09-11T05:37:22.840Z,2.22
2022-09-11T05:39:49.974Z,2.92
2022-09-11T05:42:17.608Z,2.10
2022-09-11T05:44:47.163Z,2.60
2022-09-11T05:47:14.372Z,2.70
2022-09-11T05:49:41.449Z,2.42
2022-09-11T05:52:08.551Z,2.37
2022-09-11T05:54:36.051Z,2.67
2022-09-11T05:57:07.019Z,2.65
2022-09-11T05:59:34.770Z,2.90
2022-09-11T06:02:02.719Z,2.50
2022-09-11T06:04:29.896Z,2.30
2022-09-11T06:06:56.951Z,2.60
2022-09-11T06:09:24.118Z,2.30
2022-09-11T06:11:51.202Z,1.90
2022-09-11T06:14:18.242Z,2.10
2022-09-11T06:16:45.364Z,1.90
2022-09-11T06:19:12.439Z,2.05
2022-09-11T06:21:40.783Z,2.38
2022-09-11T06:24:08.191Z,2.10
2022-09-11T06:26:35.527Z,1.95
2022-09-11T06:29:03.146Z,2.40
2022-09-11T06:31:30.204Z,1.70
2022-09-11T06:33:57.377Z,2.42
2022-09-11T06:36:27.016Z,2.63
2022-09-11T06:38:54.997Z,2.83
2022-09-11T06:41:22.526Z,2.47
2022-09-11T06:43:49.622Z,3.00
2022-09-11T06:46:21.675Z,3.33
2022-09-11T06:48:49.786Z,2.92
2022-09-11T06:51:18.004Z,3.45
2022-09-11T06:53:45.373Z,3.35
2022-09-11T06:56:13.702Z,2.97
2022-09-11T06:58:41.128Z,2.25
2022-09-11T07:01:10.508Z,2.67
2022-09-11T07:03:37.665Z,3.08
2022-09-11T07:06:06.679Z,2.97
2022-09-11T07:08:33.766Z,2.20
2022-09-11T07:11:04.698Z,2.85
2022-09-11T07:13:37.223Z,2.83
2022-09-11T07:16:06.317Z,2.97
2022-09-11T07:18:34.307Z,2.78
2022-09-11T07:21:01.433Z,2.27
2022-09-11T07:23:28.570Z,2.63
2022-09-11T07:25:55.661Z,2.80
2022-09-11T07:28:22.809Z,2.50
2022-09-11T07:30:50.140Z,2.58
2022-09-11T07:33:17.181Z,2.08
2022-09-11T07:35:44.240Z,2.47
2022-09-11T07:38:11.319Z,2.57
2022-09-11T07:40:38.401Z,2.50
2022-09-11T07:43:05.521Z,2.55
2022-09-11T07:45:32.782Z,2.70
2022-09-11T07:48:01.666Z,2.60
2022-09-11T07:50:28.981Z,2.50
2022-09-11T07:52:56.150Z,2.28
2022-09-11T07:55:23.204Z,1.83
2022-09-11T07:57:52.017Z,2.30
2022-09-11T08:00:19.170Z,2.60
2022-09-11T08:02:46.129Z,2.00
2022-09-11T08:05:13.325Z,2.70
2022-09-11T08:07:40.400Z,2.60
2022-09-11T08:10:26.582Z,2.70
2022-09-11T08:12:59.145Z,2.20
2022-09-11T08:15:27.116Z,2.30
2022-09-11T08:17:54.301Z,2.37
2022-09-11T08:20:21.638Z,3.00
2022-09-11T08:22:48.673Z,2.47
2022-09-11T08:25:16.144Z,2.30
2022-09-11T08:27:43.216Z,2.08
2022-09-11T08:30:10.996Z,2.53
2022-09-11T08:32:38.886Z,2.33
2022-09-11T08:35:06.236Z,2.42
2022-09-11T08:37:33.306Z,2.60
2022-09-11T08:40:01.508Z,2.30
2022-09-11T08:42:28.810Z,2.40
2022-09-11T08:44:57.277Z,2.50
2022-09-11T08:47:26.464Z,2.80
2022-09-11T08:49:59.743Z,2.38
2022-09-11T08:52:27.082Z,2.70
2022-09-11T08:54:56.465Z,2.38
2022-09-11T08:57:30.940Z,2.40
2022-09-11T09:00:06.021Z,2.40
2022-09-11T09:02:33.143Z,2.40
2022-09-11T09:05:08.039Z,2.20
2022-09-11T09:07:36.140Z,2.85
2022-09-11T09:10:24.588Z,2.55
2022-09-11T09:13:12.220Z,2.40
2022-09-11T09:15:46.350Z,2.67
2022-09-11T09:18:17.651Z,2.90
2022-09-11T09:20:47.180Z,2.63
2022-09-11T09:23:32.990Z,2.70
2022-09-11T09:26:00.885Z,2.60
2022-09-11T09:28:46.780Z,2.60
2022-09-11T09:31:16.026Z,2.50
2022-09-11T09:33:48.523Z,2.55
2022-09-11T09:36:17.411Z,2.55
2022-09-11T09:38:44.620Z,2.92
2022-09-11T09:41:20.523Z,3.03
2022-09-11T09:43:54.980Z,3.05
2022-09-11T09:46:42.006Z,2.63
2022-09-11T09:49:11.000Z,2.80
2022-09-11T09:51:39.775Z,2.70
2022-09-11T09:54:06.929Z,2.80
2022-09-11T09:56:35.788Z,3.40
2022-09-11T09:59:04.098Z,2.67
2022-09-11T10:01:48.255Z,2.70
2022-09-11T10:04:18.562Z,2.78
2022-09-11T10:06:46.239Z,3.20
2022-09-11T10:09:29.899Z,3.33
2022-09-11T10:12:02.777Z,3.35
2022-09-11T10:14:50.447Z,3.20
2022-09-11T10:17:21.214Z,3.28
2022-09-11T10:19:48.398Z,2.83
2022-09-11T10:22:32.330Z,3.00
2022-09-11T10:25:00.574Z,3.60
2022-09-11T10:27:28.981Z,3.05
2022-09-11T10:29:57.477Z,3.40
2022-09-11T10:32:24.681Z,3.70
2022-09-11T10:34:52.967Z,3.88
2022-09-11T10:37:24.326Z,3.67
2022-09-11T10:39:51.959Z,3.90
2022-09-11T10:42:27.300Z,4.43
2022-09-11T10:44:55.377Z,3.78
2022-09-11T10:47:22.421Z,3.80
2022-09-11T10:49:49.980Z,4.07
2022-09-11T10:52:17.391Z,3.70
2022-09-11T10:54:48.100Z,3.50
2022-09-11T10:57:16.123Z,3.78
2022-09-11T11:00:08.234Z,3.63
2022-09-11T11:02:35.285Z,3.53
2022-09-11T11:05:04.574Z,3.53
2022-09-11T11:07:45.134Z,3.53
2022-09-11T11:10:32.498Z,4.13
2022-09-11T11:13:09.994Z,3.30
2022-09-11T11:15:41.111Z,4.18
2022-09-11T11:18:15.976Z,3.72
2022-09-11T11:20:50.718Z,3.90
2022-09-11T11:23:22.140Z,4.18
2022-09-11T11:25:51.006Z,4.50
2022-09-11T11:28:37.964Z,4.10
2022-09-11T11:31:15.974Z,4.47
2022-09-11T11:33:56.424Z,4.30
2022-09-11T11:36:43.433Z,4.47
2022-09-11T11:39:18.096Z,4.63
2022-09-11T11:41:47.689Z,4.65
2022-09-11T11:44:18.564Z,4.90
2022-09-11T11:46:49.345Z,4.43
2022-09-11T11:49:19.389Z,4.57
2022-09-11T11:51:50.781Z,4.10
2022-09-11T11:54:20.444Z,3.40
2022-09-11T11:56:57.052Z,4.10
2022-09-11T11:59:40.669Z,2.95
2022-09-11T12:02:11.640Z,3.25
2022-09-11T12:04:48.749Z,2.60
2022-09-11T12:07:25.470Z,2.90
2022-09-11T12:09:53.662Z,2.90
2022-09-11T12:12:22.180Z,2.67
2022-09-11T12:14:50.976Z,2.88
2022-09-11T12:17:19.340Z,3.35
2022-09-11T12:20:06.308Z,2.97
2022-09-11T12:22:34.556Z,3.00
2022-09-11T12:25:03.288Z,2.90
2022-09-11T12:27:34.582Z,2.90
2022-09-11T12:30:21.327Z,2.73
2022-09-11T12:32:49.680Z,2.50
2022-09-11T12:35:20.096Z,2.83
2022-09-11T12:37:54.131Z,2.63
2022-09-11T12:40:27.688Z,2.60
2022-09-11T12:42:57.463Z,2.90
2022-09-11T12:45:39.577Z,3.08
2022-09-11T12:48:12.175Z,2.72
2022-09-11T12:50:39.442Z,3.10
2022-09-11T12:53:08.827Z,3.13
2022-09-11T12:55:43.277Z,2.72
2022-09-11T12:58:28.808Z,2.90
2022-09-11T13:01:06.134Z,2.40
2022-09-11T13:03:33.912Z,2.33
2022-09-11T13:06:01.038Z,2.40
2022-09-11T13:08:29.563Z,2.53
2022-09-11T13:11:16.540Z,2.60
2022-09-11T13:13:44.999Z,2.60
2022-09-11T13:16:19.565Z,2.83
2022-09-11T13:18:46.718Z,2.85
2022-09-11T13:21:14.999Z,2.70
2022-09-11T13:23:43.066Z,3.10
2022-09-11T13:26:15.054Z,2.80
2022-09-11T13:28:51.411Z,2.92
2022-09-11T13:31:21.338Z,2.67
2022-09-11T13:33:49.563Z,3.00
2022-09-11T13:36:18.107Z,2.88
2022-09-11T13:38:48.126Z,2.65
2022-09-11T13:41:16.758Z,2.55
2022-09-11T13:43:45.579Z,2.30
2022-09-11T13:46:12.550Z,2.28
2022-09-11T13:48:39.311Z,1.83
2022-09-11T13:51:06.648Z,1.80
2022-09-11T13:53:35.742Z,1.80
2022-09-11T13:56:02.951Z,1.60
2022-09-11T13:58:36.266Z,1.75
2022-09-11T14:01:11.502Z,1.60
2022-09-11T14:03:40.946Z,1.60
2022-09-11T14:06:10.886Z,1.77
2022-09-11T14:08:44.678Z,1.80
2022-09-11T14:11:15.303Z,1.70
2022-09-11T14:13:57.994Z,1.90
2022-09-11T14:16:29.321Z,1.70
2022-09-11T14:19:16.305Z,1.90
2022-09-11T14:21:45.341Z,1.88
2022-09-11T14:24:28.698Z,1.88
2022-09-11T14:26:59.185Z,1.77
2022-09-11T14:29:28.665Z,1.88
2022-09-11T14:32:15.669Z,2.10
2022-09-11T14:34:42.273Z,1.80
2022-09-11T14:37:12.200Z,2.00
2022-09-11T14:39:40.720Z,2.10
2022-09-11T14:42:09.080Z,1.35
2022-09-11T14:44:39.318Z,1.70
2022-09-11T14:47:06.580Z,1.60
2022-09-11T14:49:33.588Z,1.60
2022-09-11T14:52:01.473Z,1.50
2022-09-11T14:54:32.836Z,1.70
2022-09-11T14:57:00.377Z,1.70
2022-09-11T14:59:29.149Z,1.70
2022-09-11T15:01:58.636Z,1.70
2022-09-11T15:04:25.865Z,1.70
2022-09-11T15:06:54.027Z,1.80
2022-09-11T15:09:21.232Z,1.90
2022-09-11T15:11:50.337Z,1.67
2022-09-11T15:14:38.031Z,1.75
2022-09-11T15:17:07.208Z,1.80
2022-09-11T15:19:38.262Z,1.60
2022-09-11T15:22:06.782Z,1.77
2022-09-11T15:24:34.312Z,1.80
2022-09-11T15:27:01.561Z,1.70
2022-09-11T15:29:31.512Z,1.70
2022-09-11T15:32:01.023Z,1.80
2022-09-11T15:34:32.464Z,1.70
2022-09-11T15:37:00.231Z,1.80
2022-09-11T15:39:28.029Z,1.80
2022-09-11T15:41:55.752Z,1.92
2022-09-11T15:44:25.335Z,1.92
2022-09-11T15:46:53.724Z,1.90
2022-09-11T15:49:21.968Z,1.98
2022-09-11T15:51:49.679Z,2.03
2022-09-11T15:54:17.000Z,2.10
2022-09-11T15:56:44.719Z,2.30
2022-09-11T15:59:12.281Z,2.33
2022-09-11T16:01:40.775Z,2.20
2022-09-11T16:04:09.021Z,2.30
2022-09-11T16:06:38.651Z,2.50
2022-09-11T16:09:07.168Z,2.30
2022-09-11T16:11:34.536Z,2.38
2022-09-11T16:14:01.683Z,2.20
2022-09-11T16:16:28.839Z,2.60
2022-09-11T16:18:58.402Z,2.70
2022-09-11T16:21:27.156Z,2.83
2022-09-11T16:23:59.223Z,2.70
2022-09-11T16:26:29.099Z,2.70
2022-09-11T16:28:56.448Z,2.60
2022-09-11T16:31:23.609Z,2.80
2022-09-11T16:33:50.960Z,2.80
2022-09-11T16:36:19.844Z,2.63
2022-09-11T16:38:50.423Z,2.80
2022-09-11T16:41:19.331Z,5.05
2022-09-11T16:43:47.690Z,4.33
2022-09-11T16:46:15.830Z,6.40
2022-09-11T16:48:44.097Z,4.90
2022-09-11T16:51:12.398Z,3.25
2022-09-11T16:53:41.102Z,2.95
2022-09-11T16:56:09.555Z,3.20
2022-09-11T16:58:36.693Z,3.17
2022-09-11T17:01:06.197Z,3.58
2022-09-11T17:03:37.163Z,3.70
2022-09-11T17:06:06.762Z,3.30
2022-09-11T17:08:34.114Z,3.30
2022-09-11T17:11:02.314Z,3.45
2022-09-11T17:13:29.751Z,3.67
2022-09-11T17:16:16.321Z,3.70
2022-09-11T17:18:59.812Z,3.70
2022-09-11T17:21:27.363Z,3.90
2022-09-11T17:23:55.264Z,3.45
2022-09-11T17:26:22.924Z,3.90
2022-09-11T17:28:50.800Z,3.72
2022-09-11T17:31:19.308Z,3.80
2022-09-11T17:33:46.955Z,3.92
2022-09-11T17:36:16.999Z,3.72
2022-09-11T17:38:45.374Z,4.25
2022-09-11T17:41:12.952Z,3.80
2022-09-11T17:43:40.568Z,4.07
2022-09-11T17:46:10.130Z,4.00
2022-09-11T17:48:38.435Z,3.35
2022-09-11T17:51:05.676Z,3.95
2022-09-11T17:53:36.461Z,3.80
2022-09-11T17:56:07.345Z,3.85
2022-09-11T17:58:35.015Z,3.60
2022-09-11T18:01:02.890Z,3.92
2022-09-11T18:03:31.725Z,3.85
2022-09-11T18:05:59.280Z,3.75
2022-09-11T18:08:26.555Z,3.80
2022-09-11T18:10:54.826Z,3.75
2022-09-11T18:13:22.058Z,3.47
2022-09-11T18:15:50.044Z,3.28
2022-09-11T18:18:17.557Z,3.60
2022-09-11T18:20:44.240Z,3.90
2022-09-11T18:23:12.177Z,4.10
2022-09-11T18:25:39.932Z,4.28
2022-09-11T18:28:07.669Z,4.13
2022-09-11T18:30:34.997Z,3.95
2022-09-11T18:33:02.083Z,4.37
2022-09-11T18:35:30.188Z,4.60
2022-09-11T18:37:57.455Z,4.72
2022-09-11T18:40:24.550Z,3.97
2022-09-11T18:42:51.788Z,4.00
2022-09-11T18:45:20.006Z,3.90
2022-09-11T18:47:52.538Z,4.00
2022-09-11T18:50:20.617Z,4.13
2022-09-11T18:52:49.570Z,4.32
2022-09-11T18:55:19.338Z,4.10
2022-09-11T18:57:49.094Z,4.30
2022-09-11T19:00:17.051Z,3.95
2022-09-11T19:02:45.114Z,4.25
2022-09-11T19:05:13.498Z,4.40
2022-09-11T19:07:40.205Z,4.15
2022-09-11T19:10:07.848Z,4.60
2022-09-11T19:12:34.545Z,4.10
2022-09-11T19:15:01.888Z,4.20
2022-09-11T19:17:28.988Z,4.50
2022-09-11T19:19:56.461Z,4.10
2022-09-11T19:22:24.758Z,4.40
2022-09-11T19:24:53.144Z,3.90
2022-09-11T19:27:20.423Z,4.32
2022-09-11T19:29:47.518Z,4.57
2022-09-11T19:32:14.642Z,4.45
2022-09-11T19:34:46.894Z,5.55
2022-09-11T19:37:14.406Z,4.88
2022-09-11T19:39:41.574Z,4.95
2022-09-11T19:42:09.233Z,5.00
2022-09-11T19:44:36.530Z,5.68
2022-09-11T19:47:03.770Z,4.90
2022-09-11T19:49:30.895Z,5.15
2022-09-11T19:51:58.260Z,4.82
2022-09-11T19:54:25.794Z,4.63
2022-09-11T19:56:52.625Z,4.80
2022-09-11T19:59:19.797Z,5.35
2022-09-11T20:01:47.007Z,5.33
2022-09-11T20:04:15.733Z,5.73
2022-09-11T20:11:57.201Z,5.67
2022-09-11T20:14:24.433Z,6.10
2022-09-11T20:16:51.505Z,6.20
2022-09-11T20:19:20.050Z,5.63
2022-09-11T20:21:47.189Z,5.38
2022-09-11T20:24:14.965Z,5.30
2022-09-11T20:26:42.085Z,5.37
2022-09-11T20:29:12.861Z,5.53
2022-09-11T20:31:48.785Z,5.10
2022-09-11T20:34:18.132Z,5.25
2022-09-11T20:36:45.558Z,5.47
2022-09-11T20:39:14.170Z,5.03
2022-09-11T20:41:41.926Z,5.07
2022-09-11T20:44:08.999Z,5.03
2022-09-11T20:46:35.972Z,5.50
2022-09-11T20:49:03.111Z,5.60
2022-09-11T20:51:30.412Z,5.80
2022-09-11T20:53:57.650Z,5.70
2022-09-11T20:56:24.759Z,5.70
2022-09-11T20:58:52.199Z,5.90
2022-09-11T21:01:21.851Z,5.90
2022-09-11T21:03:50.530Z,6.15
2022-09-11T21:06:22.069Z,6.35
2022-09-11T21:08:52.781Z,6.60
2022-09-11T21:11:19.912Z,6.40
2022-09-11T21:13:47.416Z,5.90
2022-09-11T21:16:15.845Z,6.40
2022-09-11T21:18:47.376Z,6.22
2022-09-11T21:21:15.013Z,6.05
2022-09-11T21:23:42.151Z,5.97
2022-09-11T21:26:10.075Z,5.10
2022-09-11T21:28:37.337Z,6.03
2022-09-11T21:31:04.857Z,5.40
2022-09-11T21:33:33.644Z,5.70
2022-09-11T21:36:00.760Z,5.25
2022-09-11T21:38:29.355Z,5.90
2022-09-11T21:40:57.439Z,6.28
2022-09-11T21:43:24.771Z,5.93
2022-09-11T21:45:51.909Z,5.95
2022-09-11T21:48:18.980Z,6.30
2022-09-11T21:50:46.123Z,5.95
2022-09-11T21:53:13.202Z,6.27
2022-09-11T21:55:41.203Z,6.20
2022-09-11T21:58:08.255Z,6.50
2022-09-11T22:00:39.567Z,6.90
2022-09-11T22:03:10.143Z,6.30
2022-09-11T22:05:40.067Z,6.55
2022-09-11T22:08:07.307Z,6.50
2022-09-11T22:10:34.370Z,6.53
2022-09-11T22:13:01.503Z,5.93
2022-09-11T22:15:28.543Z,6.20
2022-09-11T22:17:55.643Z,6.40
2022-09-11T22:20:22.956Z,6.43
2022-09-11T22:22:50.914Z,6.30
2022-09-11T22:25:17.942Z,6.20
2022-09-11T22:27:46.478Z,5.82
2022-09-11T22:30:14.041Z,5.85
2022-09-11T22:32:41.264Z,5.70
2022-09-11T22:35:08.467Z,5.50
2022-09-11T22:37:35.492Z,5.55
2022-09-11T22:40:04.497Z,6.22
2022-09-11T22:42:31.664Z,6.53
2022-09-11T22:44:58.732Z,6.80
2022-09-11T22:47:25.876Z,6.83
2022-09-11T22:49:52.918Z,7.78
2022-09-11T22:52:20.017Z,7.47
2022-09-11T22:54:47.493Z,7.80
2022-09-11T22:57:14.565Z,7.78
2022-09-11T22:59:41.612Z,8.05
2022-09-11T23:02:09.451Z,7.68
2022-09-11T23:04:36.500Z,7.50
2022-09-11T23:07:18.961Z,6.57
2022-09-11T23:09:46.033Z,6.75
2022-09-11T23:12:13.174Z,7.10
2022-09-11T23:14:40.216Z,8.30
2022-09-11T23:17:08.112Z,7.47
2022-09-11T23:19:35.950Z,7.60
2022-09-11T23:22:03.031Z,7.20
2022-09-11T23:24:30.157Z,7.43
2022-09-11T23:26:57.226Z,7.93
2022-09-11T23:29:25.525Z,8.20
2022-09-11T23:31:52.684Z,7.93
2022-09-11T23:34:19.647Z,7.97
2022-09-11T23:36:47.155Z,7.60
2022-09-11T23:39:14.671Z,7.97
2022-09-11T23:41:41.739Z,7.30
2022-09-11T23:44:09.905Z,6.93
2022-09-11T23:46:36.934Z,6.68
2022-09-11T23:49:04.091Z,7.37
2022-09-11T23:51:31.499Z,6.65
2022-09-11T23:53:58.567Z,7.63
2022-09-11T23:56:25.687Z,8.00
2022-09-11T23:58:52.768Z,7.65
